sensor_id;sensor_type;location;lat;lon;timestamp;pressure;altitude;pressure_sealevel;temperature;humidity
54439;BME280;40347;53.848;27.498;2023-01-25T00:01:16;1032.2;;;-0.4;61.4
54439;BME280;40347;53.848;27.498;2023-01-25T00:06:04;1032.2;;;-0.3;61.2
54439;BME280;40347;53.848;27.498;2023-01-25T00:11:04;1032.2;;;-0.2;61.1
54439;BME280;40347;53.848;27.498;2023-01-25T00:16:12;1032.2;;;-0.2;60.3
54439;BME280;40347;53.848;27.498;2023-01-25T00:21:36;1032.2;;;-0.4;60.3
54439;BME280;40347;53.848;27.498;2023-01-25T00:26:04;1032.2;;;-0.5;60.7
54439;BME280;40347;53.848;27.498;2023-01-25T00:31:05;1032.1;;;-0.5;60.9
54439;BME280;40347;53.848;27.498;2023-01-25T00:36:26;1032.1;;;-0.5;61.1
54439;BME280;40347;53.848;27.498;2023-01-25T00:41:04;1032.1;;;-0.5;61.1
54439;BME280;40347;53.848;27.498;2023-01-25T00:46:24;1031.9;;;-0.4;60.9
54439;BME280;40347;53.848;27.498;2023-01-25T00:51:04;1031.9;;;-0.4;60.8
54439;BME280;40347;53.848;27.498;2023-01-25T00:56:12;1031.9;;;-0.4;60.8
54439;BME280;40347;53.848;27.498;2023-01-25T01:01:04;1031.8;;;-0.3;60.9
54439;BME280;40347;53.848;27.498;2023-01-25T01:06:06;1031.9;;;-0.2;60.9
54439;BME280;40347;53.848;27.498;2023-01-25T01:11:24;1031.8;;;-0.3;60.8
54439;BME280;40347;53.848;27.498;2023-01-25T01:16:26;1031.7;;;-0.5;60.8
54439;BME280;40347;53.848;27.498;2023-01-25T01:21:12;1031.6;;;-0.5;61
54439;BME280;40347;53.848;27.498;2023-01-25T01:26:13;1031.7;;;-0.5;61.2
54439;BME280;40347;53.848;27.498;2023-01-25T01:31:05;1031.6;;;-0.6;61.2
54439;BME280;40347;53.848;27.498;2023-01-25T01:36:13;1031.6;;;-0.6;61.2
54439;BME280;40347;53.848;27.498;2023-01-25T01:41:17;1031.6;;;-0.5;61.1
54439;BME280;40347;53.848;27.498;2023-01-25T01:46:16;1031.5;;;-0.6;61.1
54439;BME280;40347;53.848;27.498;2023-01-25T01:51:17;1031.4;;;-0.5;61.2
54439;BME280;40347;53.848;27.498;2023-01-25T01:56:06;1031.4;;;-0.4;61.2
54439;BME280;40347;53.848;27.498;2023-01-25T02:01:12;1031.5;;;-0.2;61.2
54439;BME280;40347;53.848;27.498;2023-01-25T02:06:39;1031.5;;;-0.1;60.9
54439;BME280;40347;53.848;27.498;2023-01-25T02:11:16;1031.5;;;-0.1;60.6
54439;BME280;40347;53.848;27.498;2023-01-25T02:16:04;1031.6;;;0;60.7
54439;BME280;40347;53.848;27.498;2023-01-25T02:21:14;1031.5;;;0.1;60.5
54439;BME280;40347;53.848;27.498;2023-01-25T02:26:05;1031.3;;;0;60.2
54439;BME280;40347;53.848;27.498;2023-01-25T02:31:04;1031.3;;;-0.1;60.4
54439;BME280;40347;53.848;27.498;2023-01-25T02:36:14;1031.3;;;0;60.6
54439;BME280;40347;53.848;27.498;2023-01-25T02:41:29;1031.3;;;0.1;60.3
54439;BME280;40347;53.848;27.498;2023-01-25T02:46:29;1031.3;;;0;60.4
54439;BME280;40347;53.848;27.498;2023-01-25T02:51:08;1031.2;;;0.1;60.5
54439;BME280;40347;53.848;27.498;2023-01-25T02:56:38;1031.2;;;0.2;60.5
54439;BME280;40347;53.848;27.498;2023-01-25T03:01:16;1031.2;;;0.1;60.1
54439;BME280;40347;53.848;27.498;2023-01-25T03:06:05;1031.1;;;0.1;60.3
54439;BME280;40347;53.848;27.498;2023-01-25T03:11:05;1031.1;;;0;60
54439;BME280;40347;53.848;27.498;2023-01-25T03:16:05;1031;;;-0.1;60.5
54439;BME280;40347;53.848;27.498;2023-01-25T03:21:17;1031;;;-0.1;60.7
54439;BME280;40347;53.848;27.498;2023-01-25T03:26:05;1031;;;-0.1;60.8
54439;BME280;40347;53.848;27.498;2023-01-25T03:31:16;1030.9;;;0;60.7
54439;BME280;40347;53.848;27.498;2023-01-25T03:36:20;1030.9;;;0.1;60.6
54439;BME280;40347;53.848;27.498;2023-01-25T03:41:04;1030.8;;;0.1;60.5
54439;BME280;40347;53.848;27.498;2023-01-25T03:46:24;1030.8;;;0.1;60.6
54439;BME280;40347;53.848;27.498;2023-01-25T03:51:16;1030.7;;;0.1;60.6
54439;BME280;40347;53.848;27.498;2023-01-25T03:56:12;1030.7;;;0.2;60.5
54439;BME280;40347;53.848;27.498;2023-01-25T04:01:05;1030.7;;;0.2;60.4
54439;BME280;40347;53.848;27.498;2023-01-25T04:06:04;1030.7;;;0.2;60.2
54439;BME280;40347;53.848;27.498;2023-01-25T04:11:14;1030.7;;;0.3;60.3
54439;BME280;40347;53.848;27.498;2023-01-25T04:16:05;1030.6;;;0.3;60.3
54439;BME280;40347;53.848;27.498;2023-01-25T04:21:04;1030.5;;;0.2;60.3
54439;BME280;40347;53.848;27.498;2023-01-25T04:26:05;1030.5;;;0.3;60.4
54439;BME280;40347;53.848;27.498;2023-01-25T04:31:12;1030.3;;;0.3;60.5
54439;BME280;40347;53.848;27.498;2023-01-25T04:36:14;1030.3;;;0.4;60.5
54439;BME280;40347;53.848;27.498;2023-01-25T04:41:22;1030.2;;;0.5;60.4
54439;BME280;40347;53.848;27.498;2023-01-25T04:46:04;1030.1;;;0.5;60.3
54439;BME280;40347;53.848;27.498;2023-01-25T04:51:16;1030;;;0.5;60.2
54439;BME280;40347;53.848;27.498;2023-01-25T04:56:05;1030;;;0.5;59.9
54439;BME280;40347;53.848;27.498;2023-01-25T05:01:16;1030;;;0.4;60.2
54439;BME280;40347;53.848;27.498;2023-01-25T05:06:04;1029.9;;;0.4;60.3
54439;BME280;40347;53.848;27.498;2023-01-25T05:11:14;1029.9;;;0.2;60.4
54439;BME280;40347;53.848;27.498;2023-01-25T05:16:12;1029.9;;;0.2;60.5
54439;BME280;40347;53.848;27.498;2023-01-25T05:21:14;1029.9;;;0.1;60.7
54439;BME280;40347;53.848;27.498;2023-01-25T05:26:04;1029.9;;;0.1;60.9
54439;BME280;40347;53.848;27.498;2023-01-25T05:31:16;1029.9;;;0.1;61.1
54439;BME280;40347;53.848;27.498;2023-01-25T05:36:12;1030;;;0.2;61.1
54439;BME280;40347;53.848;27.498;2023-01-25T05:41:12;1030;;;0.3;61
54439;BME280;40347;53.848;27.498;2023-01-25T05:46:04;1030.1;;;0.2;61
54439;BME280;40347;53.848;27.498;2023-01-25T05:51:04;1030.1;;;0.2;61.1
54439;BME280;40347;53.848;27.498;2023-01-25T05:56:04;1030.1;;;0.3;61
54439;BME280;40347;53.848;27.498;2023-01-25T06:01:05;1030.1;;;0.2;61.1
54439;BME280;40347;53.848;27.498;2023-01-25T06:06:14;1030.1;;;0.1;61.1
54439;BME280;40347;53.848;27.498;2023-01-25T06:11:05;1030.2;;;0.2;61.2
54439;BME280;40347;53.848;27.498;2023-01-25T06:16:14;1030.1;;;0.3;61.3
54439;BME280;40347;53.848;27.498;2023-01-25T06:21:40;1030.1;;;0.3;61.2
54439;BME280;40347;53.848;27.498;2023-01-25T06:26:14;1030.1;;;0.2;61.1
54439;BME280;40347;53.848;27.498;2023-01-25T06:31:05;1030.1;;;0.2;61.1
54439;BME280;40347;53.848;27.498;2023-01-25T06:36:26;1030;;;0.2;61.2
54439;BME280;40347;53.848;27.498;2023-01-25T06:41:26;1030;;;0.3;61.3
54439;BME280;40347;53.848;27.498;2023-01-25T06:46:05;1030;;;0.4;61.3
54439;BME280;40347;53.848;27.498;2023-01-25T06:51:17;1030.1;;;0.5;61.1
54439;BME280;40347;53.848;27.498;2023-01-25T06:56:05;1030.1;;;0.5;60.8
54439;BME280;40347;53.848;27.498;2023-01-25T07:01:15;1030.1;;;0.4;60.9
54439;BME280;40347;53.848;27.498;2023-01-25T07:06:34;1030.1;;;0.4;61
54439;BME280;40347;53.848;27.498;2023-01-25T07:11:05;1030.1;;;0.5;61
54439;BME280;40347;53.848;27.498;2023-01-25T07:16:05;1030.1;;;0.6;61
54439;BME280;40347;53.848;27.498;2023-01-25T07:21:05;1030;;;0.7;60.9
54439;BME280;40347;53.848;27.498;2023-01-25T07:26:24;1029.9;;;0.8;60.7
54439;BME280;40347;53.848;27.498;2023-01-25T07:31:12;1029.8;;;0.9;60.6
54439;BME280;40347;53.848;27.498;2023-01-25T07:36:05;1029.8;;;1;60.5
54439;BME280;40347;53.848;27.498;2023-01-25T07:41:04;1029.7;;;1;60.2
54439;BME280;40347;53.848;27.498;2023-01-25T07:46:36;1029.7;;;1;60.2
54439;BME280;40347;53.848;27.498;2023-01-25T07:51:24;1029.6;;;1.1;60.3
54439;BME280;40347;53.848;27.498;2023-01-25T07:56:14;1029.6;;;1.2;60.3
54439;BME280;40347;53.848;27.498;2023-01-25T08:01:37;1029.5;;;1.3;60
54439;BME280;40347;53.848;27.498;2023-01-25T08:06:04;1029.5;;;1.4;59.6
54439;BME280;40347;53.848;27.498;2023-01-25T08:11:06;1029.4;;;1.4;59.7
54439;BME280;40347;53.848;27.498;2023-01-25T08:16:15;1029.4;;;1.4;59.5
54439;BME280;40347;53.848;27.498;2023-01-25T08:21:26;1029.4;;;1.5;59.4
54439;BME280;40347;53.848;27.498;2023-01-25T08:26:26;1029.4;;;1.6;59.5
54439;BME280;40347;53.848;27.498;2023-01-25T08:31:05;1029.4;;;1.7;59.3
54439;BME280;40347;53.848;27.498;2023-01-25T08:36:04;1029.4;;;1.8;59.2
54439;BME280;40347;53.848;27.498;2023-01-25T08:41:04;1029.3;;;1.8;59
54439;BME280;40347;53.848;27.498;2023-01-25T08:46:25;1029.3;;;1.8;59.1
54439;BME280;40347;53.848;27.498;2023-01-25T08:51:38;1029.2;;;2;59.1
54439;BME280;40347;53.848;27.498;2023-01-25T08:56:04;1029.2;;;2.1;58.9
54439;BME280;40347;53.848;27.498;2023-01-25T09:01:05;1029.1;;;2.2;58.5
54439;BME280;40347;53.848;27.498;2023-01-25T09:06:14;1029.1;;;2.2;58.2
54439;BME280;40347;53.848;27.498;2023-01-25T09:11:05;1029.1;;;2.1;58.3
54439;BME280;40347;53.848;27.498;2023-01-25T09:16:15;1029.1;;;2.2;58.1
54439;BME280;40347;53.848;27.498;2023-01-25T09:21:15;1029.1;;;2.2;58
54439;BME280;40347;53.848;27.498;2023-01-25T09:26:16;1029;;;2.3;58.1
54439;BME280;40347;53.848;27.498;2023-01-25T09:31:15;1028.9;;;2.5;58.1
54439;BME280;40347;53.848;27.498;2023-01-25T09:36:04;1028.9;;;2.7;57.3
54439;BME280;40347;53.848;27.498;2023-01-25T09:41:20;1028.8;;;2.6;57.3
54439;BME280;40347;53.848;27.498;2023-01-25T09:46:25;1028.8;;;2.6;57.5
54439;BME280;40347;53.848;27.498;2023-01-25T09:51:07;1028.8;;;2.7;57.3
54439;BME280;40347;53.848;27.498;2023-01-25T09:56:07;1028.7;;;2.7;57.5
54439;BME280;40347;53.848;27.498;2023-01-25T10:01:08;1028.7;;;2.8;57.3
54439;BME280;40347;53.848;27.498;2023-01-25T10:06:04;1028.6;;;2.9;57.2
54439;BME280;40347;53.848;27.498;2023-01-25T10:11:06;1028.6;;;2.9;57.2
54439;BME280;40347;53.848;27.498;2023-01-25T10:16:23;1028.5;;;3;57.3
54439;BME280;40347;53.848;27.498;2023-01-25T10:21:16;1028.4;;;3;57.3
54439;BME280;40347;53.848;27.498;2023-01-25T10:26:25;1028.3;;;3;57.3
54439;BME280;40347;53.848;27.498;2023-01-25T10:31:05;1028.2;;;3.2;57
54439;BME280;40347;53.848;27.498;2023-01-25T10:36:13;1028.1;;;3.3;57
54439;BME280;40347;53.848;27.498;2023-01-25T10:41:16;1028.1;;;3.3;57
54439;BME280;40347;53.848;27.498;2023-01-25T10:46:16;1028;;;3.4;56.8
54439;BME280;40347;53.848;27.498;2023-01-25T10:51:27;1027.9;;;3.5;56.8
54439;BME280;40347;53.848;27.498;2023-01-25T10:56:09;1027.9;;;3.6;56.7
54439;BME280;40347;53.848;27.498;2023-01-25T11:01:13;1027.9;;;3.6;56.6
54439;BME280;40347;53.848;27.498;2023-01-25T11:06:27;1027.8;;;3.7;56.6
54439;BME280;40347;53.848;27.498;2023-01-25T11:11:13;1027.7;;;3.8;56.7
54439;BME280;40347;53.848;27.498;2023-01-25T11:16:12;1027.7;;;3.8;56.4
54439;BME280;40347;53.848;27.498;2023-01-25T11:21:26;1027.7;;;3.9;56.4
54439;BME280;40347;53.848;27.498;2023-01-25T11:26:26;1027.7;;;3.9;56.4
54439;BME280;40347;53.848;27.498;2023-01-25T11:31:04;1027.6;;;3.8;56.3
54439;BME280;40347;53.848;27.498;2023-01-25T11:36:13;1027.5;;;3.8;56.3
54439;BME280;40347;53.848;27.498;2023-01-25T11:41:18;1027.4;;;3.7;56.6
54439;BME280;40347;53.848;27.498;2023-01-25T11:46:39;1027.3;;;3.7;56.7
54439;BME280;40347;53.848;27.498;2023-01-25T11:51:05;1027.2;;;3.7;56.4
54439;BME280;40347;53.848;27.498;2023-01-25T11:56:27;1027.2;;;3.7;56.6
54439;BME280;40347;53.848;27.498;2023-01-25T12:01:32;1027.2;;;3.6;56.9
54439;BME280;40347;53.848;27.498;2023-01-25T12:06:28;1027.2;;;3.7;57.1
54439;BME280;40347;53.848;27.498;2023-01-25T12:11:05;1027;;;3.7;57.1
54439;BME280;40347;53.848;27.498;2023-01-25T12:16:26;1027;;;3.7;56.9
54439;BME280;40347;53.848;27.498;2023-01-25T12:21:30;1027;;;3.8;56.9
54439;BME280;40347;53.848;27.498;2023-01-25T12:26:17;1026.9;;;3.8;57
54439;BME280;40347;53.848;27.498;2023-01-25T12:31:06;1026.8;;;4;56.9
54439;BME280;40347;53.848;27.498;2023-01-25T12:36:05;1026.7;;;4.1;56.8
54439;BME280;40347;53.848;27.498;2023-01-25T12:41:14;1026.6;;;4.1;56.9
54439;BME280;40347;53.848;27.498;2023-01-25T12:46:27;1026.6;;;4.1;56.9
54439;BME280;40347;53.848;27.498;2023-01-25T12:51:04;1026.7;;;4.1;57
54439;BME280;40347;53.848;27.498;2023-01-25T12:56:29;1026.6;;;4.1;56.9
54439;BME280;40347;53.848;27.498;2023-01-25T13:01:30;1026.6;;;4;56.9
54439;BME280;40347;53.848;27.498;2023-01-25T13:06:14;1026.6;;;3.9;57
54439;BME280;40347;53.848;27.498;2023-01-25T13:11:06;1026.5;;;3.9;57.1
54439;BME280;40347;53.848;27.498;2023-01-25T13:16:21;1026.4;;;3.9;57.3
54439;BME280;40347;53.848;27.498;2023-01-25T13:21:07;1026.4;;;3.9;57.2
54439;BME280;40347;53.848;27.498;2023-01-25T13:26:36;1026.4;;;3.9;57.4
54439;BME280;40347;53.848;27.498;2023-01-25T13:31:04;1026.3;;;3.8;57.5
54439;BME280;40347;53.848;27.498;2023-01-25T13:36:43;1026.3;;;3.7;57.6
54439;BME280;40347;53.848;27.498;2023-01-25T13:41:16;1026.2;;;3.7;57.9
54439;BME280;40347;53.848;27.498;2023-01-25T13:46:38;1026.1;;;3.6;58
54439;BME280;40347;53.848;27.498;2023-01-25T13:51:06;1026;;;3.6;58.2
54439;BME280;40347;53.848;27.498;2023-01-25T13:56:23;1026;;;3.6;58.1
54439;BME280;40347;53.848;27.498;2023-01-25T14:01:24;1026.1;;;3.5;58.2
54439;BME280;40347;53.848;27.498;2023-01-25T14:06:15;1026;;;3.5;58.3
54439;BME280;40347;53.848;27.498;2023-01-25T14:11:23;1025.9;;;3.6;58.5
54439;BME280;40347;53.848;27.498;2023-01-25T14:16:16;1025.9;;;3.5;58.5
54439;BME280;40347;53.848;27.498;2023-01-25T14:21:28;1025.9;;;3.5;58.6
54439;BME280;40347;53.848;27.498;2023-01-25T14:26:10;1025.8;;;3.4;58.7
54439;BME280;40347;53.848;27.498;2023-01-25T14:31:25;1025.8;;;3.3;58.9
54439;BME280;40347;53.848;27.498;2023-01-25T14:36:27;1025.7;;;3.3;59.1
54439;BME280;40347;53.848;27.498;2023-01-25T14:41:15;1025.7;;;3.3;59.2
54439;BME280;40347;53.848;27.498;2023-01-25T14:46:23;1025.6;;;3.1;59.5
54439;BME280;40347;53.848;27.498;2023-01-25T14:51:27;1025.5;;;3.1;59.5
54439;BME280;40347;53.848;27.498;2023-01-25T14:56:17;1025.5;;;3;59.7
54439;BME280;40347;53.848;27.498;2023-01-25T15:01:35;1025.5;;;2.9;59.9
54439;BME280;40347;53.848;27.498;2023-01-25T15:06:12;1025.5;;;2.9;60
54439;BME280;40347;53.848;27.498;2023-01-25T15:11:20;1025.5;;;2.9;60.2
54439;BME280;40347;53.848;27.498;2023-01-25T15:16:14;1025.5;;;2.9;60.3
54439;BME280;40347;53.848;27.498;2023-01-25T15:21:06;1025.5;;;2.8;60.3
54439;BME280;40347;53.848;27.498;2023-01-25T15:26:17;1025.5;;;2.9;60.6
54439;BME280;40347;53.848;27.498;2023-01-25T15:31:27;1025.5;;;2.8;60.4
54439;BME280;40347;53.848;27.498;2023-01-25T15:36:14;1025.5;;;2.8;60.3
54439;BME280;40347;53.848;27.498;2023-01-25T15:41:04;1025.5;;;2.8;60.4
54439;BME280;40347;53.848;27.498;2023-01-25T15:46:27;1025.5;;;2.8;60.5
54439;BME280;40347;53.848;27.498;2023-01-25T15:51:04;1025.6;;;2.7;60.5
54439;BME280;40347;53.848;27.498;2023-01-25T15:56:29;1025.5;;;2.8;60.6
54439;BME280;40347;53.848;27.498;2023-01-25T16:01:12;1025.4;;;2.7;60.6
54439;BME280;40347;53.848;27.498;2023-01-25T16:06:20;1025.4;;;2.7;60.7
54439;BME280;40347;53.848;27.498;2023-01-25T16:11:04;1025.3;;;2.7;60.8
54439;BME280;40347;53.848;27.498;2023-01-25T16:16:26;1025.3;;;2.6;60.9
54439;BME280;40347;53.848;27.498;2023-01-25T16:21:24;1025.2;;;2.6;60.9
54439;BME280;40347;53.848;27.498;2023-01-25T16:26:37;1025.2;;;2.6;60.9
54439;BME280;40347;53.848;27.498;2023-01-25T16:31:04;1025.2;;;2.6;61
54439;BME280;40347;53.848;27.498;2023-01-25T16:36:17;1025.2;;;2.6;61
54439;BME280;40347;53.848;27.498;2023-01-25T16:41:04;1025.2;;;2.6;61
54439;BME280;40347;53.848;27.498;2023-01-25T16:46:04;1025.2;;;2.6;61
54439;BME280;40347;53.848;27.498;2023-01-25T16:51:04;1025.1;;;2.6;61
54439;BME280;40347;53.848;27.498;2023-01-25T16:56:15;1025.1;;;2.6;60.9
54439;BME280;40347;53.848;27.498;2023-01-25T17:01:07;1025.1;;;2.6;60.9
54439;BME280;40347;53.848;27.498;2023-01-25T17:06:23;1025;;;2.6;61.1
54439;BME280;40347;53.848;27.498;2023-01-25T17:11:05;1025;;;2.7;61.1
54439;BME280;40347;53.848;27.498;2023-01-25T17:16:04;1025;;;2.7;61
54439;BME280;40347;53.848;27.498;2023-01-25T17:21:14;1025;;;2.7;61
54439;BME280;40347;53.848;27.498;2023-01-25T17:26:15;1025;;;2.7;61.1
54439;BME280;40347;53.848;27.498;2023-01-25T17:31:04;1025;;;2.8;61.2
54439;BME280;40347;53.848;27.498;2023-01-25T17:36:16;1025;;;2.7;61
54439;BME280;40347;53.848;27.498;2023-01-25T17:41:14;1024.9;;;2.6;61.2
54439;BME280;40347;53.848;27.498;2023-01-25T17:46:19;1024.9;;;2.7;61.4
54439;BME280;40347;53.848;27.498;2023-01-25T17:51:04;1024.9;;;2.6;61.5
54439;BME280;40347;53.848;27.498;2023-01-25T17:56:16;1024.9;;;2.6;61.6
54439;BME280;40347;53.848;27.498;2023-01-25T18:01:13;1024.9;;;2.6;61.7
54439;BME280;40347;53.848;27.498;2023-01-25T18:06:04;1024.9;;;2.6;61.7
54439;BME280;40347;53.848;27.498;2023-01-25T18:11:16;1024.8;;;2.6;61.8
54439;BME280;40347;53.848;27.498;2023-01-25T18:16:15;1024.6;;;2.7;61.8
54439;BME280;40347;53.848;27.498;2023-01-25T18:21:05;1024.6;;;2.7;61.8
54439;BME280;40347;53.848;27.498;2023-01-25T18:26:15;1024.4;;;2.7;62
54439;BME280;40347;53.848;27.498;2023-01-25T18:31:22;1024.4;;;2.7;62.1
54439;BME280;40347;53.848;27.498;2023-01-25T18:36:04;1024.3;;;2.6;62
54439;BME280;40347;53.848;27.498;2023-01-25T18:41:05;1024.3;;;2.6;62.2
54439;BME280;40347;53.848;27.498;2023-01-25T18:46:04;1024.2;;;2.7;62.2
54439;BME280;40347;53.848;27.498;2023-01-25T18:51:14;1024.1;;;2.6;62.3
54439;BME280;40347;53.848;27.498;2023-01-25T18:56:15;1024;;;2.6;62.2
54439;BME280;40347;53.848;27.498;2023-01-25T19:01:05;1024;;;2.6;62.4
54439;BME280;40347;53.848;27.498;2023-01-25T19:06:26;1023.9;;;2.6;62.5
54439;BME280;40347;53.848;27.498;2023-01-25T19:11:28;1023.9;;;2.6;62.6
54439;BME280;40347;53.848;27.498;2023-01-25T19:16:27;1023.9;;;2.6;62.6
54439;BME280;40347;53.848;27.498;2023-01-25T19:21:15;1023.9;;;2.7;62.8
54439;BME280;40347;53.848;27.498;2023-01-25T19:26:17;1023.9;;;2.7;62.7
54439;BME280;40347;53.848;27.498;2023-01-25T19:31:17;1023.9;;;2.8;62.7
54439;BME280;40347;53.848;27.498;2023-01-25T19:36:13;1023.9;;;2.8;62.7
54439;BME280;40347;53.848;27.498;2023-01-25T19:41:15;1023.9;;;2.9;62.7
54439;BME280;40347;53.848;27.498;2023-01-25T19:46:27;1023.9;;;2.9;62.6
54439;BME280;40347;53.848;27.498;2023-01-25T19:51:05;1023.8;;;2.8;62.7
54439;BME280;40347;53.848;27.498;2023-01-25T19:56:05;1023.8;;;2.7;62.9
54439;BME280;40347;53.848;27.498;2023-01-25T20:01:05;1023.7;;;2.7;62.9
54439;BME280;40347;53.848;27.498;2023-01-25T20:06:04;1023.6;;;2.6;63.1
54439;BME280;40347;53.848;27.498;2023-01-25T20:11:05;1023.7;;;2.5;63.4
54439;BME280;40347;53.848;27.498;2023-01-25T20:16:14;1023.6;;;2.6;63.4
54439;BME280;40347;53.848;27.498;2023-01-25T20:21:17;1023.6;;;2.6;63.6
54439;BME280;40347;53.848;27.498;2023-01-25T20:26:15;1023.5;;;2.8;63.5
54439;BME280;40347;53.848;27.498;2023-01-25T20:31:17;1023.4;;;2.9;63.4
54439;BME280;40347;53.848;27.498;2023-01-25T20:36:25;1023.4;;;2.9;63.4
54439;BME280;40347;53.848;27.498;2023-01-25T20:41:07;1023.4;;;2.8;63.4
54439;BME280;40347;53.848;27.498;2023-01-25T20:46:12;1023.4;;;2.8;63.3
54439;BME280;40347;53.848;27.498;2023-01-25T20:51:05;1023.5;;;2.7;63.5
54439;BME280;40347;53.848;27.498;2023-01-25T20:56:12;1023.5;;;2.6;63.8
54439;BME280;40347;53.848;27.498;2023-01-25T21:01:13;1023.4;;;2.7;64
54439;BME280;40347;53.848;27.498;2023-01-25T21:06:16;1023.4;;;2.8;63.8
54439;BME280;40347;53.848;27.498;2023-01-25T21:11:14;1023.4;;;2.7;63.7
54439;BME280;40347;53.848;27.498;2023-01-25T21:16:24;1023.4;;;2.7;63.8
54439;BME280;40347;53.848;27.498;2023-01-25T21:21:05;1023.4;;;2.7;64
54439;BME280;40347;53.848;27.498;2023-01-25T21:26:25;1023.3;;;2.8;64.1
54439;BME280;40347;53.848;27.498;2023-01-25T21:31:13;1023.3;;;2.8;64.1
54439;BME280;40347;53.848;27.498;2023-01-25T21:36:22;1023.2;;;2.8;64
54439;BME280;40347;53.848;27.498;2023-01-25T21:41:15;1023.1;;;2.8;63.9
54439;BME280;40347;53.848;27.498;2023-01-25T21:46:04;1023;;;2.8;63.9
54439;BME280;40347;53.848;27.498;2023-01-25T21:51:04;1023;;;2.8;63.8
54439;BME280;40347;53.848;27.498;2023-01-25T21:56:04;1023;;;2.7;63.8
54439;BME280;40347;53.848;27.498;2023-01-25T22:01:26;1023;;;2.6;63.9
54439;BME280;40347;53.848;27.498;2023-01-25T22:06:24;1023;;;2.5;64.1
54439;BME280;40347;53.848;27.498;2023-01-25T22:11:14;1022.9;;;2.5;64.3
54439;BME280;40347;53.848;27.498;2023-01-25T22:16:05;1022.9;;;2.5;64.3
54439;BME280;40347;53.848;27.498;2023-01-25T22:21:15;1022.9;;;2.6;64.3
54439;BME280;40347;53.848;27.498;2023-01-25T22:26:15;1022.9;;;2.6;64.2
54439;BME280;40347;53.848;27.498;2023-01-25T22:31:04;1022.8;;;2.6;64.2
54439;BME280;40347;53.848;27.498;2023-01-25T22:36:04;1022.8;;;2.6;64.3
54439;BME280;40347;53.848;27.498;2023-01-25T22:41:05;1022.7;;;2.7;64.2
54439;BME280;40347;53.848;27.498;2023-01-25T22:46:38;1022.7;;;2.8;64
54439;BME280;40347;53.848;27.498;2023-01-25T22:51:15;1022.6;;;2.8;63.9
54439;BME280;40347;53.848;27.498;2023-01-25T22:56:05;1022.6;;;2.7;63.9
54439;BME280;40347;53.848;27.498;2023-01-25T23:01:15;1022.5;;;2.7;64.1
54439;BME280;40347;53.848;27.498;2023-01-25T23:06:17;1022.4;;;2.8;64.2
54439;BME280;40347;53.848;27.498;2023-01-25T23:11:23;1022.3;;;2.8;64.2
54439;BME280;40347;53.848;27.498;2023-01-25T23:16:14;1022.3;;;2.8;64.2
54439;BME280;40347;53.848;27.498;2023-01-25T23:21:04;1022.2;;;2.8;64.2
54439;BME280;40347;53.848;27.498;2023-01-25T23:26:24;1022.2;;;2.8;64.2
54439;BME280;40347;53.848;27.498;2023-01-25T23:31:16;1022.1;;;2.8;64.3
54439;BME280;40347;53.848;27.498;2023-01-25T23:36:06;1022;;;2.7;64.3
54439;BME280;40347;53.848;27.498;2023-01-25T23:41:04;1021.9;;;2.7;64.6
54439;BME280;40347;53.848;27.498;2023-01-25T23:46:04;1021.8;;;2.8;64.6
54439;BME280;40347;53.848;27.498;2023-01-25T23:51:04;1021.7;;;2.8;64.5
54439;BME280;40347;53.848;27.498;2023-01-25T23:56:24;1021.7;;;2.8;64.6
